sensor_id;sensor_type;location;lat;lon;timestamp;P1;durP1;ratioP1;P2;durP2;ratioP2
24161;SDS011;12318;51.262;7.066;2023-05-14T00:01:30;8.50;;;4.63;;
24161;SDS011;12318;51.262;7.066;2023-05-14T00:03:56;10.57;;;4.90;;
24161;SDS011;12318;51.262;7.066;2023-05-14T00:06:22;6.82;;;4.90;;
24161;SDS011;12318;51.262;7.066;2023-05-14T00:08:47;7.10;;;4.82;;
24161;SDS011;12318;51.262;7.066;2023-05-14T00:11:13;12.43;;;5.20;;
24161;SDS011;12318;51.262;7.066;2023-05-14T00:13:39;5.25;;;4.70;;
24161;SDS011;12318;51.262;7.066;2023-05-14T00:16:05;11.63;;;5.47;;
24161;SDS011;12318;51.262;7.066;2023-05-14T00:18:31;6.50;;;4.60;;
24161;SDS011;12318;51.262;7.066;2023-05-14T00:20:57;6.45;;;4.68;;
24161;SDS011;12318;51.262;7.066;2023-05-14T00:23:23;8.32;;;4.45;;
24161;SDS011;12318;51.262;7.066;2023-05-14T00:25:49;12.27;;;4.95;;
24161;SDS011;12318;51.262;7.066;2023-05-14T00:28:15;8.35;;;4.80;;
24161;SDS011;12318;51.262;7.066;2023-05-14T00:30:40;8.75;;;4.63;;
24161;SDS011;12318;51.262;7.066;2023-05-14T00:33:06;9.20;;;4.47;;
24161;SDS011;12318;51.262;7.066;2023-05-14T00:35:32;6.70;;;4.72;;
24161;SDS011;12318;51.262;7.066;2023-05-14T00:38:00;7.05;;;4.55;;
24161;SDS011;12318;51.262;7.066;2023-05-14T00:40:27;10.23;;;4.80;;
24161;SDS011;12318;51.262;7.066;2023-05-14T00:42:53;7.95;;;4.50;;
24161;SDS011;12318;51.262;7.066;2023-05-14T00:45:19;6.00;;;4.72;;
24161;SDS011;12318;51.262;7.066;2023-05-14T00:47:47;12.85;;;5.10;;
24161;SDS011;12318;51.262;7.066;2023-05-14T00:50:14;5.78;;;4.40;;
24161;SDS011;12318;51.262;7.066;2023-05-14T00:52:40;10.00;;;4.60;;
24161;SDS011;12318;51.262;7.066;2023-05-14T00:55:07;10.30;;;5.18;;
24161;SDS011;12318;51.262;7.066;2023-05-14T00:57:33;6.32;;;4.95;;
24161;SDS011;12318;51.262;7.066;2023-05-14T01:00:00;7.65;;;5.18;;
24161;SDS011;12318;51.262;7.066;2023-05-14T01:02:27;11.25;;;5.72;;
24161;SDS011;12318;51.262;7.066;2023-05-14T01:04:55;8.68;;;5.00;;
24161;SDS011;12318;51.262;7.066;2023-05-14T01:07:29;9.02;;;4.90;;
24161;SDS011;12318;51.262;7.066;2023-05-14T01:10:30;6.22;;;5.60;;
24161;SDS011;12318;51.262;7.066;2023-05-14T01:15:59;9.23;;;6.22;;
24161;SDS011;12318;51.262;7.066;2023-05-14T01:18:28;12.25;;;5.82;;
24161;SDS011;12318;51.262;7.066;2023-05-14T01:20:55;10.05;;;5.60;;
24161;SDS011;12318;51.262;7.066;2023-05-14T01:23:21;8.15;;;6.07;;
24161;SDS011;12318;51.262;7.066;2023-05-14T01:25:48;10.30;;;7.03;;
24161;SDS011;12318;51.262;7.066;2023-05-14T01:28:22;9.55;;;6.95;;
24161;SDS011;12318;51.262;7.066;2023-05-14T01:30:58;10.15;;;6.32;;
24161;SDS011;12318;51.262;7.066;2023-05-14T01:33:40;12.55;;;6.50;;
24161;SDS011;12318;51.262;7.066;2023-05-14T01:36:07;11.23;;;6.95;;
24161;SDS011;12318;51.262;7.066;2023-05-14T01:38:34;9.57;;;6.82;;
24161;SDS011;12318;51.262;7.066;2023-05-14T01:41:01;7.25;;;6.43;;
24161;SDS011;12318;51.262;7.066;2023-05-14T01:43:27;14.65;;;7.88;;
24161;SDS011;12318;51.262;7.066;2023-05-14T01:45:54;9.05;;;7.07;;
24161;SDS011;12318;51.262;7.066;2023-05-14T01:48:22;9.70;;;6.97;;
24161;SDS011;12318;51.262;7.066;2023-05-14T01:50:48;13.02;;;6.63;;
24161;SDS011;12318;51.262;7.066;2023-05-14T01:53:14;7.90;;;7.00;;
24161;SDS011;12318;51.262;7.066;2023-05-14T01:55:41;14.70;;;7.68;;
24161;SDS011;12318;51.262;7.066;2023-05-14T01:58:07;9.90;;;7.10;;
24161;SDS011;12318;51.262;7.066;2023-05-14T02:00:33;8.68;;;7.07;;
24161;SDS011;12318;51.262;7.066;2023-05-14T02:02:59;12.05;;;7.75;;
24161;SDS011;12318;51.262;7.066;2023-05-14T02:05:25;11.90;;;7.78;;
24161;SDS011;12318;51.262;7.066;2023-05-14T02:07:50;11.52;;;7.13;;
24161;SDS011;12318;51.262;7.066;2023-05-14T02:10:16;11.60;;;7.50;;
24161;SDS011;12318;51.262;7.066;2023-05-14T02:12:42;10.80;;;7.03;;
24161;SDS011;12318;51.262;7.066;2023-05-14T02:15:09;16.50;;;8.13;;
24161;SDS011;12318;51.262;7.066;2023-05-14T02:17:35;9.65;;;7.70;;
24161;SDS011;12318;51.262;7.066;2023-05-14T02:20:01;11.27;;;7.68;;
24161;SDS011;12318;51.262;7.066;2023-05-14T02:22:26;10.68;;;7.72;;
24161;SDS011;12318;51.262;7.066;2023-05-14T02:24:52;13.13;;;7.85;;
24161;SDS011;12318;51.262;7.066;2023-05-14T02:27:18;13.82;;;8.43;;
24161;SDS011;12318;51.262;7.066;2023-05-14T02:29:45;10.82;;;8.10;;
24161;SDS011;12318;51.262;7.066;2023-05-14T02:32:11;10.48;;;7.88;;
24161;SDS011;12318;51.262;7.066;2023-05-14T02:34:37;11.45;;;8.18;;
24161;SDS011;12318;51.262;7.066;2023-05-14T02:37:03;13.90;;;8.25;;
24161;SDS011;12318;51.262;7.066;2023-05-14T02:39:29;14.35;;;8.15;;
24161;SDS011;12318;51.262;7.066;2023-05-14T02:41:55;10.52;;;8.13;;
24161;SDS011;12318;51.262;7.066;2023-05-14T02:44:20;10.50;;;7.35;;
24161;SDS011;12318;51.262;7.066;2023-05-14T02:46:46;14.27;;;7.85;;
24161;SDS011;12318;51.262;7.066;2023-05-14T02:49:12;13.85;;;7.90;;
24161;SDS011;12318;51.262;7.066;2023-05-14T02:51:38;13.02;;;6.97;;
24161;SDS011;12318;51.262;7.066;2023-05-14T02:54:04;12.15;;;8.75;;
24161;SDS011;12318;51.262;7.066;2023-05-14T02:56:30;15.85;;;7.95;;
24161;SDS011;12318;51.262;7.066;2023-05-14T02:58:55;11.63;;;7.78;;
24161;SDS011;12318;51.262;7.066;2023-05-14T03:01:21;15.32;;;7.10;;
24161;SDS011;12318;51.262;7.066;2023-05-14T03:03:47;14.20;;;8.00;;
24161;SDS011;12318;51.262;7.066;2023-05-14T03:06:13;9.27;;;7.57;;
24161;SDS011;12318;51.262;7.066;2023-05-14T03:08:39;13.68;;;7.57;;
24161;SDS011;12318;51.262;7.066;2023-05-14T03:11:05;12.68;;;7.00;;
24161;SDS011;12318;51.262;7.066;2023-05-14T03:13:31;12.32;;;6.85;;
24161;SDS011;12318;51.262;7.066;2023-05-14T03:15:57;10.63;;;6.72;;
24161;SDS011;12318;51.262;7.066;2023-05-14T03:18:26;10.70;;;7.03;;
24161;SDS011;12318;51.262;7.066;2023-05-14T03:20:54;9.63;;;6.60;;
24161;SDS011;12318;51.262;7.066;2023-05-14T03:23:20;9.63;;;6.80;;
24161;SDS011;12318;51.262;7.066;2023-05-14T03:25:46;15.13;;;6.15;;
24161;SDS011;12318;51.262;7.066;2023-05-14T03:28:12;12.73;;;7.20;;
24161;SDS011;12318;51.262;7.066;2023-05-14T03:30:38;9.25;;;6.45;;
24161;SDS011;12318;51.262;7.066;2023-05-14T03:33:04;9.05;;;7.43;;
24161;SDS011;12318;51.262;7.066;2023-05-14T03:35:30;8.82;;;6.35;;
24161;SDS011;12318;51.262;7.066;2023-05-14T03:37:55;9.38;;;7.40;;
24161;SDS011;12318;51.262;7.066;2023-05-14T03:40:23;7.88;;;5.80;;
24161;SDS011;12318;51.262;7.066;2023-05-14T03:42:51;7.45;;;5.78;;
24161;SDS011;12318;51.262;7.066;2023-05-14T03:45:17;8.95;;;6.07;;
24161;SDS011;12318;51.262;7.066;2023-05-14T03:47:43;14.25;;;6.85;;
24161;SDS011;12318;51.262;7.066;2023-05-14T03:50:09;12.52;;;6.90;;
24161;SDS011;12318;51.262;7.066;2023-05-14T03:52:34;15.07;;;7.35;;
24161;SDS011;12318;51.262;7.066;2023-05-14T03:55:01;10.05;;;6.43;;
24161;SDS011;12318;51.262;7.066;2023-05-14T03:57:27;10.63;;;6.18;;
24161;SDS011;12318;51.262;7.066;2023-05-14T03:59:53;12.85;;;7.35;;
24161;SDS011;12318;51.262;7.066;2023-05-14T04:02:18;11.57;;;8.15;;
24161;SDS011;12318;51.262;7.066;2023-05-14T04:04:44;9.95;;;8.27;;
24161;SDS011;12318;51.262;7.066;2023-05-14T04:07:10;12.93;;;7.85;;
24161;SDS011;12318;51.262;7.066;2023-05-14T04:09:36;14.38;;;9.38;;
24161;SDS011;12318;51.262;7.066;2023-05-14T04:12:02;11.60;;;9.50;;
24161;SDS011;12318;51.262;7.066;2023-05-14T04:14:28;13.88;;;10.10;;
24161;SDS011;12318;51.262;7.066;2023-05-14T04:16:54;12.05;;;10.52;;
24161;SDS011;12318;51.262;7.066;2023-05-14T04:19:20;14.57;;;11.23;;
24161;SDS011;12318;51.262;7.066;2023-05-14T04:21:46;11.23;;;8.95;;
24161;SDS011;12318;51.262;7.066;2023-05-14T04:24:11;10.63;;;7.70;;
24161;SDS011;12318;51.262;7.066;2023-05-14T04:26:37;11.52;;;7.85;;
24161;SDS011;12318;51.262;7.066;2023-05-14T04:29:03;14.57;;;10.25;;
24161;SDS011;12318;51.262;7.066;2023-05-14T04:31:29;12.82;;;9.80;;
24161;SDS011;12318;51.262;7.066;2023-05-14T04:33:55;15.15;;;8.32;;
24161;SDS011;12318;51.262;7.066;2023-05-14T04:36:21;14.35;;;10.93;;
24161;SDS011;12318;51.262;7.066;2023-05-14T04:38:50;14.85;;;11.98;;
24161;SDS011;12318;51.262;7.066;2023-05-14T04:41:16;11.65;;;9.20;;
24161;SDS011;12318;51.262;7.066;2023-05-14T04:43:42;13.25;;;9.88;;
24161;SDS011;12318;51.262;7.066;2023-05-14T04:46:08;18.25;;;10.35;;
24161;SDS011;12318;51.262;7.066;2023-05-14T04:48:33;14.88;;;9.75;;
24161;SDS011;12318;51.262;7.066;2023-05-14T04:50:59;13.82;;;9.30;;
24161;SDS011;12318;51.262;7.066;2023-05-14T04:53:25;12.02;;;7.60;;
24161;SDS011;12318;51.262;7.066;2023-05-14T04:55:52;14.48;;;8.82;;
24161;SDS011;12318;51.262;7.066;2023-05-14T04:58:18;10.95;;;8.20;;
24161;SDS011;12318;51.262;7.066;2023-05-14T05:00:43;10.02;;;8.10;;
24161;SDS011;12318;51.262;7.066;2023-05-14T05:03:09;10.25;;;7.55;;
24161;SDS011;12318;51.262;7.066;2023-05-14T05:05:35;13.13;;;9.07;;
24161;SDS011;12318;51.262;7.066;2023-05-14T05:08:01;11.30;;;8.68;;
24161;SDS011;12318;51.262;7.066;2023-05-14T05:10:27;13.27;;;8.18;;
24161;SDS011;12318;51.262;7.066;2023-05-14T05:12:53;11.77;;;8.82;;
24161;SDS011;12318;51.262;7.066;2023-05-14T05:15:19;16.15;;;6.82;;
24161;SDS011;12318;51.262;7.066;2023-05-14T05:17:50;11.10;;;5.53;;
24161;SDS011;12318;51.262;7.066;2023-05-14T05:20:16;9.50;;;5.35;;
24161;SDS011;12318;51.262;7.066;2023-05-14T05:22:42;8.05;;;5.30;;
24161;SDS011;12318;51.262;7.066;2023-05-14T05:25:08;5.88;;;4.72;;
24161;SDS011;12318;51.262;7.066;2023-05-14T05:27:36;6.90;;;4.95;;
24161;SDS011;12318;51.262;7.066;2023-05-14T05:30:01;11.10;;;5.32;;
24161;SDS011;12318;51.262;7.066;2023-05-14T05:32:28;8.23;;;5.70;;
24161;SDS011;12318;51.262;7.066;2023-05-14T05:34:54;8.50;;;5.15;;
24161;SDS011;12318;51.262;7.066;2023-05-14T05:37:20;6.70;;;5.50;;
24161;SDS011;12318;51.262;7.066;2023-05-14T05:39:46;8.85;;;6.35;;
24161;SDS011;12318;51.262;7.066;2023-05-14T05:42:12;11.90;;;6.38;;
24161;SDS011;12318;51.262;7.066;2023-05-14T05:44:38;11.45;;;6.65;;
24161;SDS011;12318;51.262;7.066;2023-05-14T05:47:04;9.00;;;5.93;;
24161;SDS011;12318;51.262;7.066;2023-05-14T05:49:30;10.68;;;7.85;;
24161;SDS011;12318;51.262;7.066;2023-05-14T05:51:56;11.00;;;7.43;;
24161;SDS011;12318;51.262;7.066;2023-05-14T05:54:22;7.82;;;6.43;;
24161;SDS011;12318;51.262;7.066;2023-05-14T05:56:50;11.15;;;6.22;;
24161;SDS011;12318;51.262;7.066;2023-05-14T05:59:16;7.32;;;5.43;;
24161;SDS011;12318;51.262;7.066;2023-05-14T06:01:42;6.43;;;5.07;;
24161;SDS011;12318;51.262;7.066;2023-05-14T06:04:08;10.60;;;4.50;;
24161;SDS011;12318;51.262;7.066;2023-05-14T06:06:34;7.38;;;4.90;;
24161;SDS011;12318;51.262;7.066;2023-05-14T06:09:00;10.05;;;4.45;;
24161;SDS011;12318;51.262;7.066;2023-05-14T06:11:26;9.02;;;4.20;;
24161;SDS011;12318;51.262;7.066;2023-05-14T06:13:52;7.55;;;4.60;;
24161;SDS011;12318;51.262;7.066;2023-05-14T06:16:18;8.07;;;4.90;;
24161;SDS011;12318;51.262;7.066;2023-05-14T06:18:44;8.40;;;5.05;;
24161;SDS011;12318;51.262;7.066;2023-05-14T06:21:10;10.70;;;4.85;;
24161;SDS011;12318;51.262;7.066;2023-05-14T06:23:36;6.85;;;4.93;;
24161;SDS011;12318;51.262;7.066;2023-05-14T06:26:02;9.02;;;6.28;;
24161;SDS011;12318;51.262;7.066;2023-05-14T06:28:28;7.15;;;5.60;;
24161;SDS011;12318;51.262;7.066;2023-05-14T06:30:56;8.25;;;5.70;;
24161;SDS011;12318;51.262;7.066;2023-05-14T06:33:22;9.02;;;5.95;;
24161;SDS011;12318;51.262;7.066;2023-05-14T06:35:55;8.38;;;5.82;;
24161;SDS011;12318;51.262;7.066;2023-05-14T06:38:25;9.50;;;5.80;;
24161;SDS011;12318;51.262;7.066;2023-05-14T06:40:51;6.78;;;5.60;;
24161;SDS011;12318;51.262;7.066;2023-05-14T06:43:22;10.20;;;5.57;;
24161;SDS011;12318;51.262;7.066;2023-05-14T06:45:53;7.53;;;5.47;;
24161;SDS011;12318;51.262;7.066;2023-05-14T06:48:19;7.85;;;5.45;;
24161;SDS011;12318;51.262;7.066;2023-05-14T06:50:46;7.38;;;6.13;;
24161;SDS011;12318;51.262;7.066;2023-05-14T06:53:13;10.10;;;5.93;;
24161;SDS011;12318;51.262;7.066;2023-05-14T06:55:39;6.55;;;5.55;;
24161;SDS011;12318;51.262;7.066;2023-05-14T06:58:05;11.43;;;5.78;;
24161;SDS011;12318;51.262;7.066;2023-05-14T07:00:32;8.57;;;5.20;;
24161;SDS011;12318;51.262;7.066;2023-05-14T07:02:57;8.73;;;5.18;;
24161;SDS011;12318;51.262;7.066;2023-05-14T07:05:23;6.88;;;5.13;;
24161;SDS011;12318;51.262;7.066;2023-05-14T07:07:49;8.23;;;4.78;;
24161;SDS011;12318;51.262;7.066;2023-05-14T07:10:15;9.52;;;5.40;;
24161;SDS011;12318;51.262;7.066;2023-05-14T07:12:41;8.23;;;5.53;;
24161;SDS011;12318;51.262;7.066;2023-05-14T07:15:07;10.48;;;5.80;;
24161;SDS011;12318;51.262;7.066;2023-05-14T07:17:33;8.60;;;5.03;;
24161;SDS011;12318;51.262;7.066;2023-05-14T07:19:59;6.65;;;4.47;;
24161;SDS011;12318;51.262;7.066;2023-05-14T07:22:25;8.05;;;4.60;;
24161;SDS011;12318;51.262;7.066;2023-05-14T07:24:51;8.27;;;4.47;;
24161;SDS011;12318;51.262;7.066;2023-05-14T07:27:16;11.27;;;4.50;;
24161;SDS011;12318;51.262;7.066;2023-05-14T07:29:45;5.28;;;4.18;;
24161;SDS011;12318;51.262;7.066;2023-05-14T07:32:13;10.98;;;4.47;;
24161;SDS011;12318;51.262;7.066;2023-05-14T07:34:42;5.75;;;3.85;;
24161;SDS011;12318;51.262;7.066;2023-05-14T07:37:07;5.55;;;3.83;;
24161;SDS011;12318;51.262;7.066;2023-05-14T07:39:33;4.95;;;3.90;;
24161;SDS011;12318;51.262;7.066;2023-05-14T07:42:00;8.60;;;3.10;;
24161;SDS011;12318;51.262;7.066;2023-05-14T07:44:26;5.18;;;3.28;;
24161;SDS011;12318;51.262;7.066;2023-05-14T07:46:52;7.47;;;2.03;;
24161;SDS011;12318;51.262;7.066;2023-05-14T07:49:18;3.28;;;2.10;;
24161;SDS011;12318;51.262;7.066;2023-05-14T07:51:43;3.65;;;1.90;;
24161;SDS011;12318;51.262;7.066;2023-05-14T07:54:09;3.10;;;2.10;;
24161;SDS011;12318;51.262;7.066;2023-05-14T07:56:35;3.35;;;1.80;;
24161;SDS011;12318;51.262;7.066;2023-05-14T07:59:01;4.78;;;1.77;;
24161;SDS011;12318;51.262;7.066;2023-05-14T08:01:27;5.22;;;1.90;;
24161;SDS011;12318;51.262;7.066;2023-05-14T08:03:53;3.75;;;2.00;;
24161;SDS011;12318;51.262;7.066;2023-05-14T08:06:20;6.07;;;1.85;;
24161;SDS011;12318;51.262;7.066;2023-05-14T08:08:46;5.70;;;2.05;;
24161;SDS011;12318;51.262;7.066;2023-05-14T08:11:12;3.47;;;2.00;;
24161;SDS011;12318;51.262;7.066;2023-05-14T08:13:38;6.07;;;1.95;;
24161;SDS011;12318;51.262;7.066;2023-05-14T08:16:04;5.72;;;1.70;;
24161;SDS011;12318;51.262;7.066;2023-05-14T08:18:31;8.57;;;2.60;;
24161;SDS011;12318;51.262;7.066;2023-05-14T08:20:56;3.83;;;1.50;;
24161;SDS011;12318;51.262;7.066;2023-05-14T08:23:22;3.88;;;1.38;;
24161;SDS011;12318;51.262;7.066;2023-05-14T08:25:48;5.28;;;1.60;;
24161;SDS011;12318;51.262;7.066;2023-05-14T08:28:13;8.00;;;1.70;;
24161;SDS011;12318;51.262;7.066;2023-05-14T08:30:39;2.85;;;1.70;;
24161;SDS011;12318;51.262;7.066;2023-05-14T08:33:05;10.20;;;2.10;;
24161;SDS011;12318;51.262;7.066;2023-05-14T08:35:31;3.22;;;2.03;;
24161;SDS011;12318;51.262;7.066;2023-05-14T08:38:00;3.92;;;1.77;;
24161;SDS011;12318;51.262;7.066;2023-05-14T08:40:25;2.35;;;1.70;;
24161;SDS011;12318;51.262;7.066;2023-05-14T08:42:51;3.75;;;1.70;;
24161;SDS011;12318;51.262;7.066;2023-05-14T08:45:19;5.00;;;1.95;;
24161;SDS011;12318;51.262;7.066;2023-05-14T08:47:49;5.20;;;1.60;;
24161;SDS011;12318;51.262;7.066;2023-05-14T08:50:15;3.30;;;1.90;;
24161;SDS011;12318;51.262;7.066;2023-05-14T08:52:42;3.05;;;1.67;;
24161;SDS011;12318;51.262;7.066;2023-05-14T08:55:11;4.50;;;2.00;;
24161;SDS011;12318;51.262;7.066;2023-05-14T08:57:37;7.80;;;1.73;;
24161;SDS011;12318;51.262;7.066;2023-05-14T09:00:03;3.42;;;1.70;;
24161;SDS011;12318;51.262;7.066;2023-05-14T09:02:35;3.72;;;1.67;;
24161;SDS011;12318;51.262;7.066;2023-05-14T09:05:04;1.50;;;1.40;;
24161;SDS011;12318;51.262;7.066;2023-05-14T09:07:31;7.95;;;1.77;;
24161;SDS011;12318;51.262;7.066;2023-05-14T09:09:57;4.03;;;1.52;;
24161;SDS011;12318;51.262;7.066;2023-05-14T09:12:23;3.50;;;1.63;;
24161;SDS011;12318;51.262;7.066;2023-05-14T09:14:49;2.58;;;1.42;;
24161;SDS011;12318;51.262;7.066;2023-05-14T09:17:16;4.13;;;1.48;;
24161;SDS011;12318;51.262;7.066;2023-05-14T09:19:42;5.85;;;1.35;;
24161;SDS011;12318;51.262;7.066;2023-05-14T09:22:11;3.83;;;1.90;;
24161;SDS011;12318;51.262;7.066;2023-05-14T09:24:38;4.20;;;1.70;;
24161;SDS011;12318;51.262;7.066;2023-05-14T09:27:05;6.50;;;1.70;;
24161;SDS011;12318;51.262;7.066;2023-05-14T09:29:31;3.88;;;1.67;;
24161;SDS011;12318;51.262;7.066;2023-05-14T09:31:58;4.82;;;1.77;;
24161;SDS011;12318;51.262;7.066;2023-05-14T09:34:33;2.53;;;1.73;;
24161;SDS011;12318;51.262;7.066;2023-05-14T09:37:03;4.05;;;1.70;;
24161;SDS011;12318;51.262;7.066;2023-05-14T09:39:33;5.00;;;1.35;;
24161;SDS011;12318;51.262;7.066;2023-05-14T09:42:00;4.25;;;1.80;;
24161;SDS011;12318;51.262;7.066;2023-05-14T09:44:27;3.78;;;1.70;;
24161;SDS011;12318;51.262;7.066;2023-05-14T09:46:52;1.90;;;1.38;;
24161;SDS011;12318;51.262;7.066;2023-05-14T09:49:19;3.05;;;1.20;;
24161;SDS011;12318;51.262;7.066;2023-05-14T09:51:45;3.08;;;1.38;;
24161;SDS011;12318;51.262;7.066;2023-05-14T09:54:14;2.58;;;1.08;;
24161;SDS011;12318;51.262;7.066;2023-05-14T09:56:49;4.15;;;1.60;;
24161;SDS011;12318;51.262;7.066;2023-05-14T09:59:23;2.47;;;1.30;;
24161;SDS011;12318;51.262;7.066;2023-05-14T10:01:49;2.90;;;1.35;;
24161;SDS011;12318;51.262;7.066;2023-05-14T10:04:19;3.20;;;1.75;;
24161;SDS011;12318;51.262;7.066;2023-05-14T10:06:47;1.60;;;1.50;;
24161;SDS011;12318;51.262;7.066;2023-05-14T10:09:18;3.35;;;1.45;;
24161;SDS011;12318;51.262;7.066;2023-05-14T10:11:47;4.70;;;1.70;;
24161;SDS011;12318;51.262;7.066;2023-05-14T10:14:18;4.50;;;1.60;;
24161;SDS011;12318;51.262;7.066;2023-05-14T10:16:49;2.08;;;1.58;;
24161;SDS011;12318;51.262;7.066;2023-05-14T10:19:16;4.22;;;1.70;;
24161;SDS011;12318;51.262;7.066;2023-05-14T10:21:46;5.45;;;1.77;;
24161;SDS011;12318;51.262;7.066;2023-05-14T10:24:17;4.55;;;1.70;;
24161;SDS011;12318;51.262;7.066;2023-05-14T10:26:44;3.53;;;1.80;;
24161;SDS011;12318;51.262;7.066;2023-05-14T10:29:10;4.25;;;1.90;;
24161;SDS011;12318;51.262;7.066;2023-05-14T10:31:50;4.35;;;1.70;;
24161;SDS011;12318;51.262;7.066;2023-05-14T10:34:32;4.13;;;2.45;;
24161;SDS011;12318;51.262;7.066;2023-05-14T10:42:34;4.85;;;1.75;;
24161;SDS011;12318;51.262;7.066;2023-05-14T10:45:06;6.22;;;2.17;;
24161;SDS011;12318;51.262;7.066;2023-05-14T10:47:37;5.80;;;2.00;;
24161;SDS011;12318;51.262;7.066;2023-05-14T10:50:05;4.38;;;1.95;;
24161;SDS011;12318;51.262;7.066;2023-05-14T10:52:32;2.30;;;1.90;;
24161;SDS011;12318;51.262;7.066;2023-05-14T10:55:03;4.72;;;1.75;;
24161;SDS011;12318;51.262;7.066;2023-05-14T10:57:35;7.65;;;1.92;;
24161;SDS011;12318;51.262;7.066;2023-05-14T11:00:03;2.60;;;1.70;;
24161;SDS011;12318;51.262;7.066;2023-05-14T11:05:08;4.45;;;2.10;;
24161;SDS011;12318;51.262;7.066;2023-05-14T11:07:38;2.33;;;1.70;;
24161;SDS011;12318;51.262;7.066;2023-05-14T11:10:08;3.58;;;2.00;;
24161;SDS011;12318;51.262;7.066;2023-05-14T11:12:42;7.95;;;1.75;;
24161;SDS011;12318;51.262;7.066;2023-05-14T11:15:22;4.70;;;1.80;;
24161;SDS011;12318;51.262;7.066;2023-05-14T11:17:50;3.40;;;1.90;;
24161;SDS011;12318;51.262;7.066;2023-05-14T11:20:17;7.80;;;1.80;;
24161;SDS011;12318;51.262;7.066;2023-05-14T11:22:43;10.65;;;1.90;;
24161;SDS011;12318;51.262;7.066;2023-05-14T11:25:12;4.47;;;1.77;;
24161;SDS011;12318;51.262;7.066;2023-05-14T11:27:39;3.60;;;2.22;;
24161;SDS011;12318;51.262;7.066;2023-05-14T11:30:11;9.27;;;1.90;;
24161;SDS011;12318;51.262;7.066;2023-05-14T11:32:38;3.38;;;1.80;;
24161;SDS011;12318;51.262;7.066;2023-05-14T11:35:05;9.48;;;1.88;;
24161;SDS011;12318;51.262;7.066;2023-05-14T11:37:31;6.05;;;1.80;;
24161;SDS011;12318;51.262;7.066;2023-05-14T11:39:58;2.45;;;1.85;;
24161;SDS011;12318;51.262;7.066;2023-05-14T11:42:25;3.80;;;1.85;;
24161;SDS011;12318;51.262;7.066;2023-05-14T11:44:51;5.88;;;1.92;;
24161;SDS011;12318;51.262;7.066;2023-05-14T11:47:21;2.47;;;1.80;;
24161;SDS011;12318;51.262;7.066;2023-05-14T11:49:47;7.20;;;1.90;;
24161;SDS011;12318;51.262;7.066;2023-05-14T11:52:13;6.10;;;2.03;;
24161;SDS011;12318;51.262;7.066;2023-05-14T11:54:41;5.38;;;1.80;;
24161;SDS011;12318;51.262;7.066;2023-05-14T11:57:18;6.97;;;1.70;;
24161;SDS011;12318;51.262;7.066;2023-05-14T11:59:47;4.68;;;1.90;;
24161;SDS011;12318;51.262;7.066;2023-05-14T12:02:16;4.25;;;1.92;;
24161;SDS011;12318;51.262;7.066;2023-05-14T12:04:43;3.92;;;1.95;;
24161;SDS011;12318;51.262;7.066;2023-05-14T12:07:15;3.47;;;1.70;;
24161;SDS011;12318;51.262;7.066;2023-05-14T12:09:42;2.92;;;1.65;;
24161;SDS011;12318;51.262;7.066;2023-05-14T12:12:13;4.25;;;1.80;;
24161;SDS011;12318;51.262;7.066;2023-05-14T12:14:41;5.72;;;1.80;;
24161;SDS011;12318;51.262;7.066;2023-05-14T12:17:15;1.98;;;1.65;;
24161;SDS011;12318;51.262;7.066;2023-05-14T12:19:45;3.00;;;1.65;;
24161;SDS011;12318;51.262;7.066;2023-05-14T12:22:13;4.07;;;1.70;;
24161;SDS011;12318;51.262;7.066;2023-05-14T12:24:53;7.43;;;1.90;;
24161;SDS011;12318;51.262;7.066;2023-05-14T12:27:22;5.97;;;1.73;;
24161;SDS011;12318;51.262;7.066;2023-05-14T12:29:49;3.90;;;1.95;;
24161;SDS011;12318;51.262;7.066;2023-05-14T12:32:27;2.97;;;1.42;;
24161;SDS011;12318;51.262;7.066;2023-05-14T12:34:55;5.95;;;1.80;;
24161;SDS011;12318;51.262;7.066;2023-05-14T12:37:21;2.65;;;1.75;;
24161;SDS011;12318;51.262;7.066;2023-05-14T12:39:47;3.80;;;2.03;;
24161;SDS011;12318;51.262;7.066;2023-05-14T12:42:15;3.38;;;2.08;;
24161;SDS011;12318;51.262;7.066;2023-05-14T12:44:41;5.00;;;1.60;;
24161;SDS011;12318;51.262;7.066;2023-05-14T12:47:07;4.35;;;1.75;;
24161;SDS011;12318;51.262;7.066;2023-05-14T12:49:33;2.60;;;1.70;;
24161;SDS011;12318;51.262;7.066;2023-05-14T12:51:58;3.95;;;1.90;;
24161;SDS011;12318;51.262;7.066;2023-05-14T12:54:24;5.95;;;2.30;;
24161;SDS011;12318;51.262;7.066;2023-05-14T12:56:50;6.28;;;1.88;;
24161;SDS011;12318;51.262;7.066;2023-05-14T12:59:16;2.55;;;1.58;;
24161;SDS011;12318;51.262;7.066;2023-05-14T13:01:41;6.35;;;1.75;;
24161;SDS011;12318;51.262;7.066;2023-05-14T13:04:08;4.85;;;2.00;;
24161;SDS011;12318;51.262;7.066;2023-05-14T13:06:36;3.92;;;1.60;;
24161;SDS011;12318;51.262;7.066;2023-05-14T13:09:05;5.65;;;1.70;;
24161;SDS011;12318;51.262;7.066;2023-05-14T13:11:31;3.30;;;1.63;;
24161;SDS011;12318;51.262;7.066;2023-05-14T13:13:57;7.13;;;2.30;;
24161;SDS011;12318;51.262;7.066;2023-05-14T13:16:26;5.80;;;2.35;;
24161;SDS011;12318;51.262;7.066;2023-05-14T13:18:53;3.95;;;1.67;;
24161;SDS011;12318;51.262;7.066;2023-05-14T13:21:19;4.88;;;1.80;;
24161;SDS011;12318;51.262;7.066;2023-05-14T13:23:45;3.72;;;1.63;;
24161;SDS011;12318;51.262;7.066;2023-05-14T13:26:12;5.75;;;1.70;;
24161;SDS011;12318;51.262;7.066;2023-05-14T13:28:38;8.60;;;1.80;;
24161;SDS011;12318;51.262;7.066;2023-05-14T13:31:05;3.63;;;1.70;;
24161;SDS011;12318;51.262;7.066;2023-05-14T13:33:33;2.50;;;1.70;;
24161;SDS011;12318;51.262;7.066;2023-05-14T13:36:00;8.48;;;2.20;;
24161;SDS011;12318;51.262;7.066;2023-05-14T13:38:26;4.35;;;1.33;;
24161;SDS011;12318;51.262;7.066;2023-05-14T13:40:51;5.20;;;1.48;;
24161;SDS011;12318;51.262;7.066;2023-05-14T13:43:18;3.72;;;1.35;;
24161;SDS011;12318;51.262;7.066;2023-05-14T13:45:44;3.10;;;1.45;;
24161;SDS011;12318;51.262;7.066;2023-05-14T13:48:09;4.93;;;1.77;;
24161;SDS011;12318;51.262;7.066;2023-05-14T13:50:35;4.85;;;1.50;;
24161;SDS011;12318;51.262;7.066;2023-05-14T13:53:01;5.30;;;1.80;;
24161;SDS011;12318;51.262;7.066;2023-05-14T13:55:27;1.90;;;1.30;;
24161;SDS011;12318;51.262;7.066;2023-05-14T13:57:52;7.53;;;1.50;;
24161;SDS011;12318;51.262;7.066;2023-05-14T14:00:18;4.05;;;1.73;;
24161;SDS011;12318;51.262;7.066;2023-05-14T14:02:44;2.67;;;1.50;;
24161;SDS011;12318;51.262;7.066;2023-05-14T14:05:10;3.63;;;1.35;;
24161;SDS011;12318;51.262;7.066;2023-05-14T14:07:36;4.50;;;1.42;;
24161;SDS011;12318;51.262;7.066;2023-05-14T14:10:02;2.03;;;1.17;;
24161;SDS011;12318;51.262;7.066;2023-05-14T14:12:28;4.53;;;1.30;;
24161;SDS011;12318;51.262;7.066;2023-05-14T14:14:55;2.60;;;1.35;;
24161;SDS011;12318;51.262;7.066;2023-05-14T14:17:20;2.65;;;1.33;;
24161;SDS011;12318;51.262;7.066;2023-05-14T14:19:46;4.78;;;1.30;;
24161;SDS011;12318;51.262;7.066;2023-05-14T14:22:12;2.33;;;1.20;;
24161;SDS011;12318;51.262;7.066;2023-05-14T14:24:41;6.38;;;1.60;;
24161;SDS011;12318;51.262;7.066;2023-05-14T14:27:07;4.03;;;1.30;;
24161;SDS011;12318;51.262;7.066;2023-05-14T14:29:33;5.00;;;1.40;;
24161;SDS011;12318;51.262;7.066;2023-05-14T14:31:59;1.92;;;1.10;;
24161;SDS011;12318;51.262;7.066;2023-05-14T14:34:25;2.20;;;1.40;;
24161;SDS011;12318;51.262;7.066;2023-05-14T14:36:51;1.40;;;1.30;;
24161;SDS011;12318;51.262;7.066;2023-05-14T14:39:16;8.02;;;1.40;;
24161;SDS011;12318;51.262;7.066;2023-05-14T14:41:42;2.08;;;1.05;;
24161;SDS011;12318;51.262;7.066;2023-05-14T14:44:08;2.67;;;1.25;;
24161;SDS011;12318;51.262;7.066;2023-05-14T14:46:34;1.90;;;1.27;;
24161;SDS011;12318;51.262;7.066;2023-05-14T14:49:00;2.45;;;1.08;;
24161;SDS011;12318;51.262;7.066;2023-05-14T14:51:26;3.08;;;1.20;;
24161;SDS011;12318;51.262;7.066;2023-05-14T14:53:51;1.25;;;1.15;;